Time;durP1;ratioP1;P1;durP2;ratioP2;P2;SDS_P1;SDS_P2;PMS_P1;PMS_P2;Temp;Humidity;BMP_temperature;BMP_pressure;BME280_temperature;BME280_humidity;BME280_pressure;Samples;Min_cycle;Max_cycle;Signal;HPM_P1;HPM_P2
2021/03/30 00:00:25;;;;;;;;;;;14.00;61.60;;;;;;5010529;28;19909;-58
2021/03/30 00:02:51;;;;;;;;;;;14.00;61.80;;;;;;5027299;28;19924;-59
2021/03/30 00:05:16;;;;;;;;;;;13.90;61.70;;;;;;5025969;28;19939;-57
2021/03/30 00:07:42;;;;;;;;;;;13.90;61.70;;;;;;5010454;28;20435;-56
2021/03/30 00:10:09;;;;;;;;;;;13.90;61.80;;;;;;5029214;28;19940;-56
2021/03/30 00:12:34;;;;;;;;;;;13.90;62.10;;;;;;5028762;28;19917;-60
2021/03/30 00:14:59;;;;;;;;;;;13.80;62.10;;;;;;5027372;28;19916;-57
2021/03/30 00:17:25;;;;;;;;;;;13.70;62.10;;;;;;5026503;28;19915;-58
2021/03/30 00:19:50;;;;;;;;;;;13.80;62.20;;;;;;5028536;28;20330;-57
2021/03/30 00:22:16;;;;;;;;;;;13.80;62.20;;;;;;5029137;28;19914;-57
2021/03/30 00:24:41;;;;;;;;;;;13.80;62.30;;;;;;5028484;28;20003;-59
2021/03/30 00:27:07;;;;;;;;;;;13.70;62.40;;;;;;5027743;28;19909;-57
2021/03/30 00:29:42;;;;;;;;;;;13.70;62.50;;;;;;5026231;28;19936;-56
2021/03/30 00:32:10;;;;;;;;;;;13.60;62.40;;;;;;5029093;28;19963;-58
2021/03/30 00:34:36;;;;;;;;;;;13.60;62.50;;;;;;5028033;28;19909;-58
2021/03/30 00:37:02;;;;;;;;;;;13.60;62.70;;;;;;5027143;28;20038;-59
2021/03/30 00:39:27;;;;;;;;;;;13.50;62.70;;;;;;5027825;28;20292;-56
2021/03/30 00:41:52;;;;;;;;;;;13.50;62.70;;;;;;5028962;28;19909;-56
2021/03/30 00:44:18;;;;;;;;;;;13.50;62.60;;;;;;5026009;28;19912;-62
2021/03/30 00:46:43;;;;;;;;;;;13.50;62.80;;;;;;5028020;28;19916;-57
2021/03/30 00:49:09;;;;;;;;;;;13.40;62.90;;;;;;5027171;28;19996;-57
2021/03/30 00:51:34;;;;;;;;;;;13.50;63.00;;;;;;5028117;28;19940;-57
2021/03/30 00:54:00;;;;;;;;;;;13.40;63.00;;;;;;5026822;28;19956;-56
2021/03/30 00:56:25;;;;;;;;;;;13.40;63.00;;;;;;5026578;28;20288;-58
2021/03/30 00:58:51;;;;;;;;;;;13.30;63.00;;;;;;5044625;28;19948;-58
2021/03/30 01:01:16;;;;;;;;;;;13.40;63.10;;;;;;5024905;28;19936;-57
2021/03/30 01:03:42;;;;;;;;;;;13.30;63.10;;;;;;5027362;28;19963;-57
2021/03/30 01:06:07;;;;;;;;;;;13.40;63.10;;;;;;5023702;28;19923;-56
2021/03/30 01:08:32;;;;;;;;;;;13.30;63.30;;;;;;5027165;28;20254;-58
2021/03/30 01:11:19;;;;;;;;;;;13.30;63.20;;;;;;5026935;28;19913;-56
2021/03/30 01:13:59;;;;;;;;;;;13.30;63.40;;;;;;5025885;28;19917;-59
2021/03/30 01:16:26;;;;;;;;;;;13.20;63.30;;;;;;5027767;28;19939;-56
2021/03/30 01:18:55;;;;;;;;;;;13.20;63.50;;;;;;5027294;28;19920;-57
2021/03/30 01:21:27;;;;;;;;;;;13.10;64.10;;;;;;5025797;28;19913;-60
2021/03/30 01:23:55;;;;;;;;;;;13.00;63.30;;;;;;5027625;28;19913;-60
2021/03/30 01:26:40;;;;;;;;;;;13.10;63.60;;;;;;5028012;28;19938;-58
2021/03/30 01:29:10;;;;;;;;;;;13.10;63.60;;;;;;5027523;28;20272;-58
2021/03/30 01:31:36;;;;;;;;;;;13.10;63.60;;;;;;5027417;28;19909;-56
2021/03/30 01:34:02;;;;;;;;;;;13.00;63.80;;;;;;5024964;28;19919;-57
2021/03/30 01:36:28;;;;;;;;;;;13.00;63.70;;;;;;5023571;28;19972;-58
2021/03/30 01:38:53;;;;;;;;;;;13.00;63.90;;;;;;4993069;28;20400;-58
2021/03/30 01:41:20;;;;;;;;;;;12.90;63.90;;;;;;5026272;28;19916;-58
2021/03/30 01:43:46;;;;;;;;;;;12.90;64.00;;;;;;5027060;28;19910;-56
2021/03/30 01:46:12;;;;;;;;;;;12.90;64.10;;;;;;5026573;28;19928;-56
2021/03/30 01:48:37;;;;;;;;;;;12.80;63.90;;;;;;5023986;28;19917;-60
2021/03/30 01:51:03;;;;;;;;;;;12.90;64.10;;;;;;5024453;28;19909;-59
2021/03/30 01:53:28;;;;;;;;;;;12.80;64.20;;;;;;5026560;28;19936;-58
2021/03/30 01:55:53;;;;;;;;;;;12.80;64.40;;;;;;5043117;28;19931;-56
2021/03/30 01:58:22;;;;;;;;;;;12.80;64.20;;;;;;5025655;28;19951;-58
2021/03/30 02:00:48;;;;;;;;;;;12.80;64.20;;;;;;5023505;28;19916;-57
2021/03/30 02:03:13;;;;;;;;;;;12.80;64.20;;;;;;5024644;28;20780;-57
2021/03/30 02:05:39;;;;;;;;;;;12.70;64.40;;;;;;5041876;28;19963;-57
2021/03/30 02:08:05;;;;;;;;;;;12.70;64.40;;;;;;5026880;28;19917;-55
2021/03/30 02:11:21;;;;;;;;;;;12.70;64.50;;;;;;5025765;28;19917;-57
2021/03/30 02:15:54;;;;;;;;;;;12.60;64.50;;;;;;5023926;28;20418;-59
2021/03/30 02:18:20;;;;;;;;;;;12.60;64.60;;;;;;5025959;28;19916;-58
2021/03/30 02:20:46;;;;;;;;;;;12.60;64.70;;;;;;5026333;28;19913;-58
2021/03/30 02:23:16;;;;;;;;;;;12.50;64.70;;;;;;5026319;28;20360;-56
2021/03/30 02:25:42;;;;;;;;;;;12.50;64.70;;;;;;5027653;28;20308;-58
2021/03/30 02:28:10;;;;;;;;;;;12.50;64.80;;;;;;5028058;28;19947;-56
2021/03/30 02:30:35;;;;;;;;;;;12.50;64.80;;;;;;5029366;28;19909;-58
2021/03/30 02:33:01;;;;;;;;;;;12.40;64.90;;;;;;5012229;28;20004;-58
2021/03/30 02:35:26;;;;;;;;;;;12.40;64.90;;;;;;5028656;28;19917;-59
2021/03/30 02:37:52;;;;;;;;;;;12.40;64.90;;;;;;5030892;28;19913;-59
2021/03/30 02:40:19;;;;;;;;;;;12.40;64.90;;;;;;5028891;28;19925;-58
2021/03/30 02:42:45;;;;;;;;;;;12.40;65.00;;;;;;5030400;28;19909;-58
2021/03/30 02:45:11;;;;;;;;;;;12.40;65.10;;;;;;5025167;28;20428;-56
2021/03/30 02:47:36;;;;;;;;;;;12.30;65.00;;;;;;5028719;28;19909;-56
2021/03/30 02:50:02;;;;;;;;;;;12.30;65.10;;;;;;5027773;28;19913;-62
2021/03/30 02:52:27;;;;;;;;;;;12.30;65.30;;;;;;5027186;28;19910;-57
2021/03/30 02:54:53;;;;;;;;;;;12.30;65.30;;;;;;5026762;28;20008;-58
2021/03/30 02:57:19;;;;;;;;;;;12.30;65.30;;;;;;5027236;28;20036;-59
2021/03/30 02:59:45;;;;;;;;;;;12.20;65.30;;;;;;5029730;28;19932;-57
2021/03/30 03:02:11;;;;;;;;;;;12.20;65.40;;;;;;5027846;28;19910;-58
2021/03/30 03:04:37;;;;;;;;;;;12.10;65.40;;;;;;5011333;28;19917;-56
2021/03/30 03:07:03;;;;;;;;;;;12.10;65.50;;;;;;5027485;28;19924;-58
2021/03/30 03:09:29;;;;;;;;;;;12.20;65.60;;;;;;5027485;28;19916;-59
2021/03/30 03:11:54;;;;;;;;;;;12.10;65.50;;;;;;5028265;28;19917;-59
2021/03/30 03:14:20;;;;;;;;;;;12.20;65.60;;;;;;5029118;28;20369;-57
2021/03/30 03:16:45;;;;;;;;;;;12.10;65.60;;;;;;5027341;28;19914;-57
2021/03/30 03:19:10;;;;;;;;;;;12.00;65.70;;;;;;5027325;28;20396;-56
2021/03/30 03:21:36;;;;;;;;;;;12.00;65.60;;;;;;5044257;28;19916;-56
2021/03/30 03:24:02;;;;;;;;;;;12.00;65.80;;;;;;5027983;28;20369;-56
2021/03/30 03:26:27;;;;;;;;;;;12.00;65.90;;;;;;5030787;28;19944;-55
2021/03/30 03:28:53;;;;;;;;;;;12.00;65.90;;;;;;5027575;28;20272;-56
2021/03/30 03:31:23;;;;;;;;;;;12.00;66.00;;;;;;5027234;28;19917;-58
2021/03/30 03:33:48;;;;;;;;;;;11.90;65.90;;;;;;5026119;28;19955;-56
2021/03/30 03:36:14;;;;;;;;;;;11.90;66.10;;;;;;5028385;28;20327;-57
2021/03/30 03:38:40;;;;;;;;;;;11.90;66.10;;;;;;5029532;28;19921;-62
2021/03/30 03:41:06;;;;;;;;;;;11.90;66.10;;;;;;5027817;28;19914;-58
2021/03/30 03:43:32;;;;;;;;;;;11.90;66.10;;;;;;5029316;28;19913;-60
2021/03/30 03:45:57;;;;;;;;;;;11.90;66.20;;;;;;5027353;28;19967;-59
2021/03/30 03:48:23;;;;;;;;;;;11.80;66.10;;;;;;5027957;28;19909;-61
2021/03/30 03:50:48;;;;;;;;;;;11.80;66.20;;;;;;5027999;28;19917;-57
2021/03/30 03:53:14;;;;;;;;;;;11.80;66.10;;;;;;5027160;28;20006;-61
2021/03/30 03:55:40;;;;;;;;;;;11.80;66.30;;;;;;5027776;28;19913;-59
2021/03/30 03:58:06;;;;;;;;;;;11.70;66.20;;;;;;5027953;28;20536;-59
2021/03/30 04:00:32;;;;;;;;;;;11.70;66.30;;;;;;5043761;28;20012;-60
2021/03/30 04:03:01;;;;;;;;;;;11.70;66.40;;;;;;5027221;28;19999;-60
2021/03/30 04:05:28;;;;;;;;;;;11.70;66.40;;;;;;5026500;28;19913;-58
2021/03/30 04:08:00;;;;;;;;;;;11.70;66.30;;;;;;5028325;28;19952;-58
2021/03/30 04:10:26;;;;;;;;;;;11.60;66.40;;;;;;5025717;28;19935;-60
2021/03/30 04:12:52;;;;;;;;;;;11.60;66.50;;;;;;5025589;28;19979;-58
2021/03/30 04:15:24;;;;;;;;;;;11.60;66.70;;;;;;5028657;28;20331;-59
2021/03/30 04:17:50;;;;;;;;;;;11.60;66.60;;;;;;5027899;28;20398;-58
2021/03/30 04:20:16;;;;;;;;;;;11.60;66.70;;;;;;5027628;28;19913;-60
2021/03/30 04:23:02;;;;;;;;;;;11.50;66.70;;;;;;5025908;28;19971;-59
2021/03/30 04:25:28;;;;;;;;;;;11.50;66.90;;;;;;5025030;28;19920;-59
2021/03/30 04:27:53;;;;;;;;;;;11.50;66.90;;;;;;5028226;28;19909;-59
2021/03/30 04:30:19;;;;;;;;;;;11.50;67.00;;;;;;5024843;28;19928;-58
2021/03/30 04:32:45;;;;;;;;;;;11.40;66.80;;;;;;5026909;28;19909;-58
2021/03/30 04:35:10;;;;;;;;;;;11.40;66.90;;;;;;5026642;28;19909;-60
2021/03/30 04:37:36;;;;;;;;;;;11.40;67.00;;;;;;5026611;28;19917;-57
2021/03/30 04:40:02;;;;;;;;;;;11.40;67.10;;;;;;5027795;28;20427;-62
2021/03/30 04:42:27;;;;;;;;;;;11.40;67.10;;;;;;5026641;28;20335;-61
2021/03/30 04:44:53;;;;;;;;;;;11.30;67.10;;;;;;5027490;28;19928;-58
2021/03/30 04:47:21;;;;;;;;;;;11.30;67.00;;;;;;5025666;28;19913;-57
2021/03/30 04:49:46;;;;;;;;;;;11.30;67.10;;;;;;5026027;28;20343;-58
2021/03/30 04:52:12;;;;;;;;;;;11.40;67.10;;;;;;5026018;28;19994;-60
2021/03/30 04:54:37;;;;;;;;;;;11.30;67.00;;;;;;5028424;28;20392;-61
2021/03/30 04:57:03;;;;;;;;;;;11.30;67.00;;;;;;5027828;28;19909;-59
2021/03/30 04:59:28;;;;;;;;;;;11.30;67.20;;;;;;5027834;28;19928;-61
2021/03/30 05:01:54;;;;;;;;;;;11.20;67.20;;;;;;5025920;28;19935;-60
2021/03/30 05:04:19;;;;;;;;;;;11.20;67.20;;;;;;5026759;28;19944;-60
2021/03/30 05:06:45;;;;;;;;;;;11.20;67.30;;;;;;5009091;28;19917;-61
2021/03/30 05:09:10;;;;;;;;;;;11.20;67.30;;;;;;5027684;28;20003;-60
2021/03/30 05:11:36;;;;;;;;;;;11.20;67.40;;;;;;5027400;28;20211;-58
2021/03/30 05:14:01;;;;;;;;;;;11.20;67.50;;;;;;5025838;28;19917;-59
2021/03/30 05:16:27;;;;;;;;;;;11.10;67.50;;;;;;5025394;28;20040;-59
2021/03/30 05:18:52;;;;;;;;;;;11.10;67.60;;;;;;5025642;28;19925;-60
2021/03/30 05:21:18;;;;;;;;;;;11.10;67.60;;;;;;5026710;28;20187;-59
2021/03/30 05:23:43;;;;;;;;;;;11.10;67.60;;;;;;5026956;28;20404;-59
2021/03/30 05:26:09;;;;;;;;;;;11.10;67.50;;;;;;5027006;28;19920;-59
2021/03/30 05:28:34;;;;;;;;;;;11.00;68.20;;;;;;5026410;28;19912;-58
2021/03/30 05:31:00;;;;;;;;;;;11.10;67.70;;;;;;5026996;28;19917;-60
2021/03/30 05:33:25;;;;;;;;;;;11.00;67.60;;;;;;5026246;28;19909;-60
2021/03/30 05:35:51;;;;;;;;;;;11.00;67.70;;;;;;5027117;28;19952;-61
2021/03/30 05:38:16;;;;;;;;;;;11.00;67.60;;;;;;5027313;28;20012;-59
2021/03/30 05:40:42;;;;;;;;;;;11.00;67.60;;;;;;5026248;28;19929;-60
2021/03/30 05:43:09;;;;;;;;;;;11.00;67.60;;;;;;5023621;28;19920;-58
2021/03/30 05:45:34;;;;;;;;;;;10.90;67.60;;;;;;5024531;28;19925;-60
2021/03/30 05:48:00;;;;;;;;;;;10.90;67.80;;;;;;5025516;28;19909;-61
2021/03/30 05:50:29;;;;;;;;;;;11.00;67.70;;;;;;5026375;28;19909;-57
2021/03/30 05:53:03;;;;;;;;;;;10.90;67.70;;;;;;5027002;28;20253;-58
2021/03/30 05:55:30;;;;;;;;;;;10.90;67.90;;;;;;5025068;28;20373;-61
2021/03/30 05:57:56;;;;;;;;;;;10.90;67.90;;;;;;5025001;28;19952;-59
2021/03/30 06:00:23;;;;;;;;;;;10.90;67.90;;;;;;5026147;28;19940;-60
2021/03/30 06:02:49;;;;;;;;;;;10.90;67.90;;;;;;5041098;28;19932;-58
2021/03/30 06:05:16;;;;;;;;;;;10.90;67.80;;;;;;5025719;28;19924;-58
2021/03/30 06:07:41;;;;;;;;;;;10.80;67.90;;;;;;5007926;28;19930;-57
2021/03/30 06:10:07;;;;;;;;;;;10.80;68.10;;;;;;5022489;28;19917;-59
2021/03/30 06:12:33;;;;;;;;;;;10.80;68.00;;;;;;5027528;28;20315;-60
2021/03/30 06:14:59;;;;;;;;;;;10.80;68.00;;;;;;5026962;28;19975;-61
2021/03/30 06:17:25;;;;;;;;;;;10.80;68.10;;;;;;5023825;28;19996;-60
2021/03/30 06:19:54;;;;;;;;;;;10.70;68.10;;;;;;5025156;28;19909;-59
2021/03/30 06:22:20;;;;;;;;;;;10.80;68.20;;;;;;5026178;28;19913;-61
2021/03/30 06:24:46;;;;;;;;;;;10.70;68.10;;;;;;5024980;28;19913;-60
2021/03/30 06:27:20;;;;;;;;;;;10.70;68.20;;;;;;5024287;28;19944;-59
2021/03/30 06:29:46;;;;;;;;;;;10.70;68.20;;;;;;5023592;28;19937;-59
2021/03/30 06:32:12;;;;;;;;;;;10.70;68.20;;;;;;5025589;28;19967;-59
2021/03/30 06:34:38;;;;;;;;;;;10.70;68.20;;;;;;5023142;28;19921;-58
2021/03/30 06:37:22;;;;;;;;;;;10.70;68.30;;;;;;5023969;28;20999;-56
2021/03/30 06:39:47;;;;;;;;;;;10.60;68.20;;;;;;5026334;28;19937;-61
2021/03/30 06:42:19;;;;;;;;;;;10.60;68.20;;;;;;5025406;28;20297;-61
2021/03/30 06:44:45;;;;;;;;;;;10.70;68.20;;;;;;5024217;28;20229;-62
2021/03/30 06:47:20;;;;;;;;;;;10.60;68.20;;;;;;5007037;28;19913;-57
2021/03/30 06:49:54;;;;;;;;;;;10.60;68.20;;;;;;5020993;28;20020;-61
2021/03/30 06:52:20;;;;;;;;;;;10.60;68.30;;;;;;5024040;28;20431;-59
2021/03/30 06:54:49;;;;;;;;;;;10.60;68.30;;;;;;5009150;28;19952;-62
2021/03/30 06:57:15;;;;;;;;;;;10.60;68.90;;;;;;5025316;28;19932;-62
2021/03/30 06:59:41;;;;;;;;;;;10.60;68.20;;;;;;5023525;28;19921;-56
2021/03/30 07:02:06;;;;;;;;;;;10.60;68.30;;;;;;4999184;28;19970;-59
2021/03/30 07:04:31;;;;;;;;;;;10.60;68.40;;;;;;5005984;28;19971;-61
2021/03/30 07:06:57;;;;;;;;;;;10.60;68.40;;;;;;5026566;28;20281;-60
2021/03/30 07:09:22;;;;;;;;;;;10.60;68.40;;;;;;5026766;28;19913;-59
2021/03/30 07:11:48;;;;;;;;;;;10.60;68.40;;;;;;5026508;28;19917;-58
2021/03/30 07:14:14;;;;;;;;;;;10.70;68.60;;;;;;5028674;28;20393;-61
2021/03/30 07:16:49;;;;;;;;;;;10.60;68.60;;;;;;5027177;28;19913;-59
2021/03/30 07:19:15;;;;;;;;;;;10.60;68.80;;;;;;5028003;28;19940;-59
2021/03/30 07:21:49;;;;;;;;;;;10.60;69.00;;;;;;5030064;28;20376;-61
2021/03/30 07:24:15;;;;;;;;;;;10.50;69.00;;;;;;5028073;28;19929;-58
2021/03/30 07:26:41;;;;;;;;;;;10.50;69.20;;;;;;5023721;28;19921;-57
2021/03/30 07:29:10;;;;;;;;;;;10.50;69.20;;;;;;5039863;28;19923;-59
2021/03/30 07:31:55;;;;;;;;;;;10.50;69.20;;;;;;5029028;28;19910;-60
2021/03/30 07:34:25;;;;;;;;;;;10.50;69.30;;;;;;5028593;28;20016;-59
2021/03/30 07:37:16;;;;;;;;;;;10.50;69.40;;;;;;5029041;28;19917;-59
2021/03/30 07:39:46;;;;;;;;;;;10.50;69.40;;;;;;5025819;28;19934;-60
2021/03/30 07:42:12;;;;;;;;;;;10.50;69.50;;;;;;5010227;28;19920;-57
2021/03/30 07:44:39;;;;;;;;;;;10.50;69.50;;;;;;5027120;28;19912;-57
2021/03/30 07:47:04;;;;;;;;;;;10.50;69.40;;;;;;5026611;28;19917;-58
2021/03/30 07:49:30;;;;;;;;;;;10.50;69.50;;;;;;5027621;28;20024;-56
2021/03/30 07:52:15;;;;;;;;;;;10.50;69.50;;;;;;5027337;28;19913;-56
2021/03/30 07:54:40;;;;;;;;;;;10.50;69.50;;;;;;5025216;28;19909;-58
2021/03/30 07:57:08;;;;;;;;;;;10.60;69.50;;;;;;5025625;28;19968;-57
2021/03/30 07:59:47;;;;;;;;;;;10.60;69.50;;;;;;5029019;28;20004;-59
2021/03/30 08:02:13;;;;;;;;;;;10.60;69.50;;;;;;5030209;28;20376;-59
2021/03/30 08:04:47;;;;;;;;;;;10.60;69.50;;;;;;5024994;28;19911;-56
2021/03/30 08:07:12;;;;;;;;;;;10.60;69.50;;;;;;5026640;28;20397;-58
2021/03/30 08:09:38;;;;;;;;;;;10.60;69.50;;;;;;5024705;28;19924;-57
2021/03/30 08:12:05;;;;;;;;;;;10.60;69.60;;;;;;5027583;28;20325;-57
2021/03/30 08:14:36;;;;;;;;;;;10.60;69.50;;;;;;5026648;28;20051;-57
2021/03/30 08:17:01;;;;;;;;;;;10.60;69.50;;;;;;5024208;28;19940;-59
2021/03/30 08:19:27;;;;;;;;;;;10.60;69.60;;;;;;5025192;28;19913;-57
2021/03/30 08:21:59;;;;;;;;;;;10.60;69.70;;;;;;5023548;28;19913;-62
2021/03/30 08:24:26;;;;;;;;;;;10.60;69.60;;;;;;5024731;28;20004;-59
2021/03/30 08:26:51;;;;;;;;;;;10.60;69.70;;;;;;5009447;28;20319;-58
2021/03/30 08:29:38;;;;;;;;;;;10.60;69.60;;;;;;5023059;28;19917;-60
2021/03/30 08:32:03;;;;;;;;;;;10.60;69.70;;;;;;5022295;28;19920;-61
2021/03/30 08:34:39;;;;;;;;;;;10.60;69.60;;;;;;5024685;28;19913;-61
2021/03/30 08:37:08;;;;;;;;;;;10.60;69.50;;;;;;5026644;28;19955;-57
2021/03/30 08:39:34;;;;;;;;;;;10.60;69.50;;;;;;5027645;28;20115;-56
2021/03/30 08:42:13;;;;;;;;;;;10.60;69.40;;;;;;5025642;28;20334;-58
2021/03/30 08:44:38;;;;;;;;;;;10.60;69.40;;;;;;5025553;28;20276;-56
2021/03/30 08:47:04;;;;;;;;;;;10.70;69.40;;;;;;5026118;28;20060;-56
2021/03/30 08:49:35;;;;;;;;;;;10.60;69.40;;;;;;5026799;28;20667;-59
2021/03/30 08:52:04;;;;;;;;;;;10.60;69.40;;;;;;5026523;28;19956;-59
2021/03/30 08:54:31;;;;;;;;;;;10.60;69.40;;;;;;5027810;28;19909;-59
2021/03/30 08:57:01;;;;;;;;;;;10.60;69.30;;;;;;5026191;28;19913;-57
2021/03/30 08:59:26;;;;;;;;;;;10.70;69.40;;;;;;5040157;28;20431;-57
2021/03/30 09:01:59;;;;;;;;;;;10.70;69.30;;;;;;5026745;28;19921;-59
2021/03/30 09:04:25;;;;;;;;;;;10.70;69.30;;;;;;5023756;28;19917;-58
2021/03/30 09:06:54;;;;;;;;;;;10.70;69.30;;;;;;5025600;28;19924;-57
2021/03/30 09:09:22;;;;;;;;;;;10.70;69.30;;;;;;5024966;28;19917;-58
2021/03/30 09:11:48;;;;;;;;;;;10.70;69.40;;;;;;4990976;28;19917;-58
2021/03/30 09:14:17;;;;;;;;;;;10.70;69.30;;;;;;5025411;28;19917;-58
2021/03/30 09:16:44;;;;;;;;;;;10.70;69.40;;;;;;5026460;28;19917;-58
2021/03/30 09:19:13;;;;;;;;;;;10.70;69.30;;;;;;5026487;28;20348;-59
2021/03/30 09:21:39;;;;;;;;;;;10.80;69.30;;;;;;5025187;28;19964;-56
2021/03/30 09:24:10;;;;;;;;;;;10.80;69.20;;;;;;5026945;28;20365;-57
2021/03/30 09:26:39;;;;;;;;;;;10.80;69.40;;;;;;5023957;28;19920;-59
2021/03/30 09:29:05;;;;;;;;;;;10.80;69.30;;;;;;5007775;28;20394;-55
2021/03/30 09:31:30;;;;;;;;;;;10.80;69.30;;;;;;5023921;28;20241;-57
2021/03/30 09:33:57;;;;;;;;;;;10.80;69.40;;;;;;5026328;28;20336;-58
2021/03/30 09:36:23;;;;;;;;;;;10.80;69.30;;;;;;5025663;28;19952;-57
2021/03/30 09:38:49;;;;;;;;;;;10.80;69.30;;;;;;5024871;28;19955;-58
2021/03/30 09:41:25;;;;;;;;;;;10.80;69.40;;;;;;5020739;28;19998;-59
2021/03/30 09:43:51;;;;;;;;;;;10.90;69.20;;;;;;5019478;28;19921;-59
2021/03/30 09:46:16;;;;;;;;;;;10.80;69.30;;;;;;5021324;28;19921;-58
2021/03/30 09:48:41;;;;;;;;;;;10.90;69.30;;;;;;5022786;28;20437;-58
2021/03/30 09:51:07;;;;;;;;;;;10.90;69.20;;;;;;5024069;28;19956;-57
2021/03/30 09:53:40;;;;;;;;;;;11.00;69.40;;;;;;5023508;28;19909;-57
2021/03/30 09:56:05;;;;;;;;;;;11.00;69.20;;;;;;5042621;28;19909;-57
2021/03/30 09:58:31;;;;;;;;;;;11.00;69.20;;;;;;5026419;28;19925;-58
2021/03/30 10:00:56;;;;;;;;;;;11.00;69.10;;;;;;5024167;28;19967;-60
2021/03/30 10:03:22;;;;;;;;;;;11.00;69.00;;;;;;5006636;28;19967;-60
2021/03/30 10:05:48;;;;;;;;;;;11.00;68.90;;;;;;5007120;28;19921;-56
2021/03/30 10:08:20;;;;;;;;;;;11.10;69.00;;;;;;5024162;28;20264;-59
2021/03/30 10:10:46;;;;;;;;;;;11.10;68.90;;;;;;5027251;28;19913;-56
2021/03/30 10:13:21;;;;;;;;;;;11.10;68.90;;;;;;5026351;28;19917;-57
2021/03/30 10:15:47;;;;;;;;;;;11.10;68.90;;;;;;5040361;28;20369;-59
2021/03/30 10:18:12;;;;;;;;;;;11.10;68.90;;;;;;5022841;28;19924;-59
2021/03/30 10:20:48;;;;;;;;;;;11.20;68.80;;;;;;5027230;28;20300;-58
2021/03/30 10:23:14;;;;;;;;;;;11.20;68.80;;;;;;5026801;28;19913;-59
2021/03/30 10:25:39;;;;;;;;;;;11.30;68.90;;;;;;5024644;28;19928;-57
2021/03/30 10:28:05;;;;;;;;;;;11.30;68.80;;;;;;5024714;28;19913;-57
2021/03/30 10:30:51;;;;;;;;;;;11.30;68.70;;;;;;5023219;28;19956;-56
2021/03/30 10:33:32;;;;;;;;;;;11.30;68.60;;;;;;5026827;28;19909;-58
2021/03/30 10:35:58;;;;;;;;;;;11.40;68.60;;;;;;5026556;28;19945;-56
2021/03/30 10:38:23;;;;;;;;;;;11.30;68.60;;;;;;5008351;28;20031;-57
2021/03/30 10:40:49;;;;;;;;;;;11.40;68.60;;;;;;5023882;28;19928;-59
2021/03/30 10:43:24;;;;;;;;;;;11.50;68.60;;;;;;5025520;28;19909;-55
2021/03/30 10:45:49;;;;;;;;;;;11.50;68.50;;;;;;5027167;28;19936;-58
2021/03/30 10:48:15;;;;;;;;;;;11.50;68.40;;;;;;5028541;28;20435;-56
2021/03/30 10:50:41;;;;;;;;;;;11.50;68.30;;;;;;5028967;28;19936;-60
2021/03/30 10:53:07;;;;;;;;;;;11.60;68.40;;;;;;5026641;28;20392;-58
2021/03/30 10:55:32;;;;;;;;;;;11.60;68.30;;;;;;5025551;28;20078;-59
2021/03/30 10:57:58;;;;;;;;;;;11.60;68.30;;;;;;5027375;28;19917;-58
2021/03/30 11:00:23;;;;;;;;;;;11.60;68.20;;;;;;5025675;28;19916;-55
2021/03/30 11:02:49;;;;;;;;;;;11.70;68.20;;;;;;5029785;28;20031;-57
2021/03/30 11:05:16;;;;;;;;;;;11.70;68.20;;;;;;5026775;28;19917;-59
2021/03/30 11:07:41;;;;;;;;;;;11.80;68.10;;;;;;5027498;28;20327;-56
2021/03/30 11:10:08;;;;;;;;;;;11.80;68.00;;;;;;5027265;28;19913;-59
2021/03/30 11:12:35;;;;;;;;;;;11.80;68.10;;;;;;5029228;28;19913;-60
2021/03/30 11:15:01;;;;;;;;;;;11.80;67.80;;;;;;5028192;28;20055;-58
2021/03/30 11:17:26;;;;;;;;;;;11.90;67.70;;;;;;5006089;28;19921;-59
2021/03/30 11:19:52;;;;;;;;;;;12.00;67.70;;;;;;5024440;28;19921;-56
2021/03/30 11:22:17;;;;;;;;;;;12.00;67.60;;;;;;5027351;28;19967;-56
2021/03/30 11:24:43;;;;;;;;;;;12.10;67.60;;;;;;5027555;28;19959;-58
2021/03/30 11:27:09;;;;;;;;;;;12.10;67.50;;;;;;5025731;28;20282;-59
2021/03/30 11:34:57;;;;;;;;;;;12.20;67.20;;;;;;5021845;28;19952;-55
2021/03/30 11:39:52;;;;;;;;;;;12.30;67.00;;;;;;5021998;28;20412;-57
2021/03/30 11:42:17;;;;;;;;;;;12.40;67.00;;;;;;5023479;28;19913;-57
2021/03/30 11:44:43;;;;;;;;;;;12.50;67.00;;;;;;5027065;28;19975;-56
2021/03/30 11:47:08;;;;;;;;;;;12.50;66.90;;;;;;5023699;28;19923;-59
2021/03/30 11:49:34;;;;;;;;;;;12.60;66.90;;;;;;5027477;28;19917;-57
2021/03/30 11:51:59;;;;;;;;;;;12.70;66.80;;;;;;5024900;28;19921;-58
2021/03/30 11:54:25;;;;;;;;;;;12.70;66.80;;;;;;5027904;28;19919;-57
2021/03/30 11:56:50;;;;;;;;;;;12.80;66.80;;;;;;5027193;28;20021;-59
2021/03/30 11:59:16;;;;;;;;;;;12.80;66.90;;;;;;5010254;28;20468;-58
2021/03/30 12:01:41;;;;;;;;;;;12.90;66.50;;;;;;5021245;28;20385;-59
2021/03/30 12:04:07;;;;;;;;;;;13.00;66.50;;;;;;5026703;28;19923;-59
2021/03/30 12:06:32;;;;;;;;;;;13.10;66.30;;;;;;5025841;28;19956;-59
2021/03/30 12:08:58;;;;;;;;;;;13.10;66.30;;;;;;5026511;28;19916;-58
2021/03/30 12:11:23;;;;;;;;;;;13.10;66.20;;;;;;5029594;28;19912;-56
2021/03/30 12:13:49;;;;;;;;;;;13.20;66.20;;;;;;5027923;28;19928;-60
2021/03/30 12:16:14;;;;;;;;;;;13.30;65.90;;;;;;5026019;28;19921;-58
2021/03/30 12:18:40;;;;;;;;;;;13.40;66.10;;;;;;5025690;28;19913;-58
2021/03/30 12:21:05;;;;;;;;;;;13.50;65.90;;;;;;5024132;28;20019;-58
2021/03/30 12:23:31;;;;;;;;;;;13.50;66.10;;;;;;5005681;28;19925;-60
2021/03/30 12:25:56;;;;;;;;;;;13.60;66.20;;;;;;5025233;28;20293;-58
2021/03/30 12:28:21;;;;;;;;;;;13.60;66.20;;;;;;5024374;28;19931;-60
2021/03/30 12:30:47;;;;;;;;;;;13.70;66.20;;;;;;5022132;28;19921;-59
2021/03/30 12:33:13;;;;;;;;;;;13.80;66.40;;;;;;5024965;28;19983;-57
2021/03/30 12:35:38;;;;;;;;;;;13.90;66.20;;;;;;5009082;28;20376;-57
2021/03/30 12:38:04;;;;;;;;;;;13.90;66.20;;;;;;5027206;28;20381;-59
2021/03/30 12:40:30;;;;;;;;;;;14.00;66.20;;;;;;5026618;28;19964;-59
2021/03/30 12:42:55;;;;;;;;;;;14.10;66.10;;;;;;5008539;28;19921;-57
2021/03/30 12:45:20;;;;;;;;;;;14.10;66.10;;;;;;5022289;28;19960;-58
2021/03/30 12:47:46;;;;;;;;;;;14.20;65.60;;;;;;5027638;28;19920;-57
2021/03/30 12:50:12;;;;;;;;;;;14.30;65.70;;;;;;5029032;28;19956;-57
2021/03/30 12:52:38;;;;;;;;;;;14.40;65.60;;;;;;5022506;28;19967;-63
2021/03/30 12:55:07;;;;;;;;;;;14.40;65.60;;;;;;5024293;28;19917;-59
2021/03/30 12:57:33;;;;;;;;;;;14.50;65.60;;;;;;5027842;28;20000;-57
2021/03/30 12:59:59;;;;;;;;;;;14.60;65.30;;;;;;5024101;28;20008;-59
2021/03/30 13:02:24;;;;;;;;;;;14.60;65.60;;;;;;5024254;28;19913;-59
2021/03/30 13:04:50;;;;;;;;;;;14.70;65.70;;;;;;5023352;28;19917;-59
2021/03/30 13:07:18;;;;;;;;;;;14.80;65.60;;;;;;5021425;28;20460;-59
2021/03/30 13:09:45;;;;;;;;;;;14.90;65.30;;;;;;5021250;28;20039;-57
2021/03/30 13:12:10;;;;;;;;;;;15.00;65.90;;;;;;5016628;28;19932;-59
2021/03/30 13:14:36;;;;;;;;;;;15.00;65.60;;;;;;5018455;28;19913;-60
2021/03/30 13:17:02;;;;;;;;;;;15.10;65.40;;;;;;5022256;28;19920;-59
2021/03/30 13:19:27;;;;;;;;;;;15.20;65.00;;;;;;5009031;28;20016;-58
2021/03/30 13:21:53;;;;;;;;;;;15.30;65.50;;;;;;5024318;28;19931;-57
2021/03/30 13:24:19;;;;;;;;;;;15.30;64.90;;;;;;5025249;28;19932;-56
2021/03/30 13:26:44;;;;;;;;;;;15.40;64.60;;;;;;5008521;28;20368;-59
2021/03/30 13:29:09;;;;;;;;;;;15.50;65.10;;;;;;5025206;28;19924;-58
2021/03/30 13:31:35;;;;;;;;;;;15.60;65.00;;;;;;5025658;28;21244;-58
2021/03/30 13:34:00;;;;;;;;;;;15.70;64.90;;;;;;5022924;28;19917;-57
2021/03/30 13:36:26;;;;;;;;;;;15.70;64.80;;;;;;5021183;28;20470;-58
2021/03/30 13:38:53;;;;;;;;;;;15.80;64.60;;;;;;5022551;28;19925;-59
2021/03/30 13:41:20;;;;;;;;;;;15.90;64.70;;;;;;5023769;28;19924;-58
2021/03/30 13:43:45;;;;;;;;;;;16.00;64.60;;;;;;5024159;28;19917;-58
2021/03/30 13:46:11;;;;;;;;;;;16.10;64.70;;;;;;5022887;28;19921;-57
2021/03/30 13:48:36;;;;;;;;;;;16.10;64.50;;;;;;5023598;28;19913;-60
2021/03/30 13:51:02;;;;;;;;;;;16.20;64.30;;;;;;5023850;28;20382;-59
2021/03/30 13:53:28;;;;;;;;;;;16.30;64.50;;;;;;5025164;28;19920;-56
2021/03/30 13:55:53;;;;;;;;;;;16.30;64.50;;;;;;5022764;28;20019;-59
2021/03/30 13:58:18;;;;;;;;;;;16.40;64.40;;;;;;5023439;28;19962;-60
2021/03/30 14:00:44;;;;;;;;;;;16.50;64.60;;;;;;5024760;28;19913;-59
2021/03/30 14:03:09;;;;;;;;;;;16.60;64.50;;;;;;5026301;28;20312;-57
2021/03/30 14:05:35;;;;;;;;;;;16.60;64.60;;;;;;5024092;28;19951;-57
2021/03/30 14:08:00;;;;;;;;;;;16.70;64.50;;;;;;5025680;28;19956;-56
2021/03/30 14:10:26;;;;;;;;;;;16.80;64.50;;;;;;5025235;28;19921;-56
2021/03/30 14:15:30;;;;;;;;;;;17.00;65.00;;;;;;5024782;28;20008;-57
2021/03/30 14:18:04;;;;;;;;;;;17.00;65.10;;;;;;5026910;28;19921;-58
2021/03/30 14:20:31;;;;;;;;;;;17.10;65.50;;;;;;5006979;28;19917;-59
2021/03/30 14:23:28;;;;;;;;;;;17.20;65.50;;;;;;5026195;28;20006;-56
2021/03/30 14:25:54;;;;;;;;;;;17.30;65.80;;;;;;5027814;28;20579;-56
2021/03/30 14:28:19;;;;;;;;;;;17.40;65.60;;;;;;5025443;28;19964;-56